WetterOnline ( https://www.wetteronline.de )

Wetter aktuell Magdeburg

Aktuelles Wetter: Magdeburg (85m)

6-stündlich | Neueste Meldungen
Ortszeit Temperatur Wetter
Mi, 26.01. 13:00 1.9° C bedeckt
Mi, 26.01. 7:00 2.2° C bedeckt
Mi, 26.01. 1:00 2.7° C bedeckt
Di, 25.01. 19:00 3.6° C bedeckt
Di, 25.01. 13:00 4.4° C bedeckt
Di, 25.01. 7:00 3.8° C bedeckt
Di, 25.01. 1:00 4.6° C bedeckt
Mo, 24.01. 19:00 5.8° C bedeckt
Ortszeit Temperatur Wetter
Mi, 26.01. 18:30 2.5° C bedeckt
Mi, 26.01. 18:20 2.5° C Dunst
Mi, 26.01. 18:10 2.5° C Dunst
Mi, 26.01. 18:00 2.4° C bewölkt
Mi, 26.01. 17:50 2.4° C Dunst
Mi, 26.01. 17:40 2.4° C Dunst
Mi, 26.01. 17:30 2.3° C bedeckt
Mi, 26.01. 17:00 2.3° C bedeckt
Mi, 26.01. 16:30 2.2° C bedeckt
Mi, 26.01. 16:00 2.1° C bewölkt
Mi, 26.01. 15:30 2.0° C bedeckt
Ortszeit Relative Feuchte Sichtweite
Mi, 26.01. 13:00 87% 5.0 km
Mi, 26.01. 7:00 94% 6 km
Mi, 26.01. 1:00 92% 8 km
Di, 25.01. 19:00 92% 7 km
Di, 25.01. 13:00 82% 15 km
Di, 25.01. 7:00 86% 12 km
Di, 25.01. 1:00 87% 17 km
Mo, 24.01. 19:00 91% 28 km
Ortszeit Relative Feuchte Sichtweite
Mi, 26.01. 18:30 87% 5.0 km
Mi, 26.01. 18:20 87% -
Mi, 26.01. 18:10 87% -
Mi, 26.01. 18:00 88% 4.9 km
Mi, 26.01. 17:50 88% -
Mi, 26.01. 17:40 88% -
Mi, 26.01. 17:30 88% 4.7 km
Mi, 26.01. 17:00 88% 4.0 km
Mi, 26.01. 16:30 87% 4.1 km
Mi, 26.01. 16:00 87% 4.4 km
Mi, 26.01. 15:30 87% 4.5 km
Ortszeit Niederschlagsmenge Niederschlagsart
Mi, 26.01. 13:00 0.0 l/m2 in 6 Std. -
Mi, 26.01. 7:00 0.1 l/m2 in 12 Std. -
Mi, 26.01. 1:00 0.1 l/m2 in 6 Std. Niederschlag
Di, 25.01. 19:00 0.0 l/m2 in 12 Std. -
Di, 25.01. 13:00 0.0 l/m2 in 6 Std. -
Di, 25.01. 7:00 0.0 l/m2 in 12 Std. -
Di, 25.01. 1:00 0.0 l/m2 in 6 Std. -
Mo, 24.01. 19:00 0.2 l/m2 in 12 Std. -
Ortszeit Niederschlagsmenge Niederschlagsart
Mi, 26.01. 18:30 0.0 l/m2 in 1 Std. -
Mi, 26.01. 18:20 keine Meldung -
Mi, 26.01. 18:10 keine Meldung -
Mi, 26.01. 18:00 0.0 l/m2 in 1 Std. -
Mi, 26.01. 17:50 keine Meldung -
Mi, 26.01. 17:40 keine Meldung -
Mi, 26.01. 17:30 0.0 l/m2 in 1 Std. -
Mi, 26.01. 17:00 0.0 l/m2 in 1 Std. -
Mi, 26.01. 16:30 0.0 l/m2 in 1 Std. -
Mi, 26.01. 16:00 0.0 l/m2 in 1 Std. -
Mi, 26.01. 15:30 0.0 l/m2 in 1 Std. -
Ortszeit Stärke Spitze Richtung
km/h Bft. km/h Grad Sektor
Mi, 26.01. 13:00 13 3 31 290° W
Mi, 26.01. 7:00 9 2 22 250° W
Mi, 26.01. 1:00 7 2 19 270° W
Di, 25.01. 19:00 9 2 22 270° W
Di, 25.01. 13:00 11 2 22 270° W
Di, 25.01. 7:00 6 1 19 310° NW
Di, 25.01. 1:00 7 2 14 270° W
Mo, 24.01. 19:00 4 1 11 280° W
Ortszeit Stärke Spitze Richtung
km/h Bft. km/h Grad Sektor
Mi, 26.01. 18:30 18 3 32 260° W
Mi, 26.01. 18:20 18 3 - 260° W
Mi, 26.01. 18:10 17 3 - 260° W
Mi, 26.01. 18:00 19 3 30 260° W
Mi, 26.01. 17:50 19 3 - 260° W
Mi, 26.01. 17:40 14 3 - 250° W
Mi, 26.01. 17:30 15 3 26 250° W
Mi, 26.01. 17:00 14 3 25 260° W
Mi, 26.01. 16:30 13 3 22 260° W
Mi, 26.01. 16:00 11 2 22 250° W
Mi, 26.01. 15:30 11 2 22 250° W
Ortszeit Untergrenze Bedeckung Gattung
total tief tief mittel hoch
Mi, 26.01. 13:00 300 m 8/8 8/8 - - -
Mi, 26.01. 7:00 570 m 8/8 8/8 - - -
Mi, 26.01. 1:00 660 m 8/8 8/8 - - -
Di, 25.01. 19:00 330 m 8/8 8/8 - - -
Di, 25.01. 13:00 360 m 8/8 8/8 - - -
Di, 25.01. 7:00 450 m 8/8 8/8 - - -
Di, 25.01. 1:00 390 m 8/8 8/8 - - -
Mo, 24.01. 19:00 480 m 8/8 8/8 - - -
Ortszeit Bedeckungsgrad in Achtel und Wolkenuntergrenze
Mi, 26.01. 18:30 7(360m) 7(510m) 8(720m)
Mi, 26.01. 18:20 7(360m) 7(510m) 8(720m)
Mi, 26.01. 18:10 8
Mi, 26.01. 18:00 6(420m) 7(750m)
Mi, 26.01. 17:50 6(420m) 7(750m)
Mi, 26.01. 17:40 8
Mi, 26.01. 17:30 1(450m) 8(750m)
Mi, 26.01. 17:00 7(420m) 8(570m)
Mi, 26.01. 16:30 8(420m)
Mi, 26.01. 16:00 7(450m)
Mi, 26.01. 15:30 8(390m)
Ortszeit Luftdruck NN (hPa) Tendenz (hPa in 3 Std.)
Mi, 26.01. 13:00 1030 + 0,3
Mi, 26.01. 7:00 1030 - 0,9
Mi, 26.01. 1:00 1032 - 0,6
Di, 25.01. 19:00 1032 + 0,5
Di, 25.01. 13:00 1033 - 0,8
Di, 25.01. 7:00 1033 - 0,3
Di, 25.01. 1:00 1034 + 0,1
Mo, 24.01. 19:00 1034 + 0,2
Ortszeit Luftdruck NN (hPa) Tendenz (hPa in 3 Std.)
Mi, 26.01. 18:30 1028 - 0,8
Mi, 26.01. 18:20 1028 keine Meldung
Mi, 26.01. 18:10 1028 keine Meldung
Mi, 26.01. 18:00 1028 - 0,9
Mi, 26.01. 17:50 1028 keine Meldung
Mi, 26.01. 17:40 1028 keine Meldung
Mi, 26.01. 17:30 1028 - 0,9
Mi, 26.01. 17:00 1028 - 1,5
Mi, 26.01. 16:30 1028 - 1,4
Mi, 26.01. 16:00 1029 - 1,6
Mi, 26.01. 15:30 1029 - 1,7
Ortszeit Schneehöhe (cm)
Mi, 26.01. 13:00 0
Mi, 26.01. 7:00 0
Mi, 26.01. 1:00 0
Di, 25.01. 19:00 0
Di, 25.01. 13:00 0
Di, 25.01. 7:00 0
Di, 25.01. 1:00 0
Mo, 24.01. 19:00 0
Ortszeit Schneehöhe (cm)
Mi, 26.01. 18:30 0
Mi, 26.01. 18:20 0
Mi, 26.01. 18:10 0
Mi, 26.01. 18:00 0
Mi, 26.01. 17:50 0
Mi, 26.01. 17:40 0
Mi, 26.01. 17:30 0
Mi, 26.01. 17:00 0
Mi, 26.01. 16:30 0
Mi, 26.01. 16:00 0
Mi, 26.01. 15:30 0
Link zu dieser Seite / Seite empfehlen

Das Wetter in ...